Time;durP1;ratioP1;P1;durP2;ratioP2;P2;SDS_P1;SDS_P2;PMS_P1;PMS_P2;Temp;Humidity;BMP_temperature;BMP_pressure;BME280_temperature;BME280_humidity;BME280_pressure;Samples;Min_cycle;Max_cycle;Signal;HPM_P1;HPM_P2
2022/06/12 00:01:57;;;;;;;;;;;14.30;50.30;;;;;;5092318;28;19924;-65
2022/06/12 00:04:25;;;;;;;;;;;14.30;50.90;;;;;;5090227;28;19924;-65
2022/06/12 00:06:52;;;;;;;;;;;14.20;51.20;;;;;;5091958;28;19974;-65
2022/06/12 00:09:20;;;;;;;;;;;14.20;51.50;;;;;;5089762;28;20007;-65
2022/06/12 00:11:46;;;;;;;;;;;14.20;52.20;;;;;;5106767;28;19971;-65
2022/06/12 00:14:15;;;;;;;;;;;14.10;53.00;;;;;;5097192;28;19994;-65
2022/06/12 00:16:42;;;;;;;;;;;14.10;54.00;;;;;;5097015;28;19924;-65
2022/06/12 00:19:09;;;;;;;;;;;14.00;55.30;;;;;;5074265;28;20283;-65
2022/06/12 00:21:38;;;;;;;;;;;13.90;56.10;;;;;;5093127;28;20343;-65
2022/06/12 00:24:06;;;;;;;;;;;13.90;56.90;;;;;;5087712;28;19931;-65
2022/06/12 00:26:35;;;;;;;;;;;13.80;57.50;;;;;;5071889;28;19956;-66
2022/06/12 00:29:04;;;;;;;;;;;13.80;58.50;;;;;;5087603;28;20027;-65
2022/06/12 00:31:32;;;;;;;;;;;13.70;59.70;;;;;;5092336;28;19924;-65
2022/06/12 00:33:59;;;;;;;;;;;13.70;61.00;;;;;;5079865;28;19931;-66
2022/06/12 00:36:26;;;;;;;;;;;13.60;61.90;;;;;;5099183;28;19964;-65
2022/06/12 00:38:54;;;;;;;;;;;13.60;62.90;;;;;;5085222;28;19931;-66
2022/06/12 00:41:21;;;;;;;;;;;13.60;63.50;;;;;;5090120;28;20038;-65
2022/06/12 00:43:48;;;;;;;;;;;13.60;64.20;;;;;;5089415;28;20412;-65
2022/06/12 00:46:31;;;;;;;;;;;13.60;65.00;;;;;;5094069;28;20447;-65
2022/06/12 00:48:57;;;;;;;;;;;13.60;66.10;;;;;;5078859;28;19931;-65
2022/06/12 00:51:24;;;;;;;;;;;13.60;67.50;;;;;;5097412;28;19970;-66
2022/06/12 00:53:53;;;;;;;;;;;13.50;68.40;;;;;;5087729;28;20023;-65
2022/06/12 00:56:24;;;;;;;;;;;13.50;69.70;;;;;;5072788;28;19956;-65
2022/06/12 00:58:52;;;;;;;;;;;13.50;70.70;;;;;;5090846;28;19924;-66
2022/06/12 01:01:21;;;;;;;;;;;13.40;72.20;;;;;;5100353;28;19930;-66
2022/06/12 01:06:35;;;;;;;;;;;13.20;75.60;;;;;;5091463;28;19931;-65
2022/06/12 01:09:04;;;;;;;;;;;13.20;78.00;;;;;;5083247;28;19924;-65
2022/06/12 01:11:33;;;;;;;;;;;13.10;80.30;;;;;;5086029;28;19985;-65
2022/06/12 01:13:59;;;;;;;;;;;13.10;82.00;;;;;;5089487;28;20015;-65
2022/06/12 01:16:27;;;;;;;;;;;13.10;83.70;;;;;;5090895;28;20430;-65
2022/06/12 01:18:55;;;;;;;;;;;13.10;84.90;;;;;;5082013;28;20449;-65
2022/06/12 01:21:30;;;;;;;;;;;13.10;86.30;;;;;;5088834;28;19971;-65
2022/06/12 01:24:05;;;;;;;;;;;13.00;87.90;;;;;;5075172;28;20396;-66
2022/06/12 01:26:51;;;;;;;;;;;13.00;89.50;;;;;;5086725;28;19968;-65
2022/06/12 01:29:22;;;;;;;;;;;13.00;90.40;;;;;;5075113;28;20019;-66
2022/06/12 01:31:54;;;;;;;;;;;12.90;91.00;;;;;;5092972;28;20001;-66
2022/06/12 01:34:29;;;;;;;;;;;12.90;91.60;;;;;;5092284;28;19970;-66
2022/06/12 01:36:58;;;;;;;;;;;12.90;91.90;;;;;;5098899;28;19972;-65
2022/06/12 01:39:28;;;;;;;;;;;12.90;92.40;;;;;;5087532;28;19932;-66
2022/06/12 01:41:58;;;;;;;;;;;12.90;93.00;;;;;;5094722;28;19924;-65
2022/06/12 01:44:33;;;;;;;;;;;12.90;93.30;;;;;;5075742;28;20011;-66
2022/06/12 01:47:01;;;;;;;;;;;12.90;93.70;;;;;;5086015;28;20233;-66
2022/06/12 01:49:31;;;;;;;;;;;12.80;94.00;;;;;;5096310;28;19974;-66
2022/06/12 01:52:01;;;;;;;;;;;12.80;94.50;;;;;;5093287;28;20019;-66
2022/06/12 01:54:30;;;;;;;;;;;12.80;95.00;;;;;;5093848;28;20023;-66
2022/06/12 01:57:02;;;;;;;;;;;12.80;95.40;;;;;;5094303;28;19963;-66
2022/06/12 01:59:34;;;;;;;;;;;12.80;95.90;;;;;;5090870;28;20019;-66
2022/06/12 02:02:04;;;;;;;;;;;12.70;96.20;;;;;;5083276;28;19967;-66
2022/06/12 02:04:33;;;;;;;;;;;12.70;96.70;;;;;;5092821;28;19967;-66
2022/06/12 02:07:01;;;;;;;;;;;12.60;97.10;;;;;;5092605;28;19930;-66
2022/06/12 02:09:30;;;;;;;;;;;12.50;97.70;;;;;;5105675;28;19971;-66
2022/06/12 02:14:48;;;;;;;;;;;12.50;98.50;;;;;;5082269;28;20022;-66
2022/06/12 02:17:18;;;;;;;;;;;12.50;99.20;;;;;;5091749;28;19930;-66
2022/06/12 02:19:45;;;;;;;;;;;12.50;99.60;;;;;;5095351;28;20031;-66
2022/06/12 02:22:17;;;;;;;;;;;12.40;99.80;;;;;;5091196;28;19933;-66
2022/06/12 02:24:45;;;;;;;;;;;12.40;99.90;;;;;;5079641;28;20433;-66
2022/06/12 02:27:13;;;;;;;;;;;12.40;99.90;;;;;;5083706;28;19934;-66
2022/06/12 02:29:42;;;;;;;;;;;12.40;99.90;;;;;;5100799;28;20018;-66
2022/06/12 02:32:13;;;;;;;;;;;12.40;99.90;;;;;;5092961;28;20019;-66
2022/06/12 02:34:43;;;;;;;;;;;12.30;99.90;;;;;;5093076;28;19931;-66
2022/06/12 02:37:14;;;;;;;;;;;12.30;99.90;;;;;;5085505;28;20022;-66
2022/06/12 02:39:43;;;;;;;;;;;12.30;99.90;;;;;;5097316;28;20354;-66
2022/06/12 02:42:13;;;;;;;;;;;12.30;99.90;;;;;;5090806;28;20058;-66
2022/06/12 02:44:43;;;;;;;;;;;12.20;99.90;;;;;;5091815;28;20015;-66
2022/06/12 02:47:13;;;;;;;;;;;12.20;99.90;;;;;;5092429;28;19933;-66
2022/06/12 02:49:42;;;;;;;;;;;12.20;99.90;;;;;;5106181;28;20000;-66
2022/06/12 02:52:13;;;;;;;;;;;12.20;99.90;;;;;;5093719;28;19968;-66
2022/06/12 02:54:43;;;;;;;;;;;12.20;99.90;;;;;;5093218;28;19974;-66
2022/06/12 02:57:13;;;;;;;;;;;12.20;99.90;;;;;;5085896;28;20743;-66
2022/06/12 02:59:46;;;;;;;;;;;12.20;99.90;;;;;;5095482;28;19924;-66
2022/06/12 03:02:16;;;;;;;;;;;12.10;99.90;;;;;;5090874;28;20066;-66
2022/06/12 03:04:46;;;;;;;;;;;12.10;99.90;;;;;;5089041;28;19930;-66
2022/06/12 03:07:13;;;;;;;;;;;12.10;99.90;;;;;;5090300;28;20014;-66
2022/06/12 03:09:40;;;;;;;;;;;12.10;99.90;;;;;;5098309;28;20366;-68
2022/06/12 03:12:07;;;;;;;;;;;12.10;99.90;;;;;;5095876;28;19930;-66
2022/06/12 03:14:34;;;;;;;;;;;12.10;99.90;;;;;;5090354;28;20027;-66
2022/06/12 03:17:01;;;;;;;;;;;12.00;99.90;;;;;;5091028;28;19932;-66
2022/06/12 03:19:31;;;;;;;;;;;12.10;99.90;;;;;;5100315;28;20018;-66
2022/06/12 03:22:05;;;;;;;;;;;12.10;99.90;;;;;;5084619;28;19978;-66
2022/06/12 03:24:40;;;;;;;;;;;12.10;99.90;;;;;;5082058;28;20010;-66
2022/06/12 03:27:12;;;;;;;;;;;12.00;99.90;;;;;;5097658;28;20022;-66
2022/06/12 03:29:42;;;;;;;;;;;12.10;99.90;;;;;;5095783;28;19924;-66
2022/06/12 03:32:14;;;;;;;;;;;12.00;99.90;;;;;;5072706;28;19952;-66
2022/06/12 03:34:46;;;;;;;;;;;12.00;99.90;;;;;;5087598;28;20401;-66
2022/06/12 03:37:19;;;;;;;;;;;12.00;99.90;;;;;;5077501;28;20719;-66
2022/06/12 03:39:49;;;;;;;;;;;12.00;99.90;;;;;;5095308;28;20102;-67
2022/06/12 03:42:19;;;;;;;;;;;12.00;99.90;;;;;;5085450;28;20027;-67
2022/06/12 03:44:51;;;;;;;;;;;12.00;99.90;;;;;;5096184;28;19989;-67
2022/06/12 03:47:19;;;;;;;;;;;12.00;99.90;;;;;;5090484;28;19983;-67
2022/06/12 03:49:50;;;;;;;;;;;12.00;99.90;;;;;;5091611;28;20026;-67
2022/06/12 03:52:20;;;;;;;;;;;12.00;99.90;;;;;;5089354;28;19975;-67
2022/06/12 03:54:48;;;;;;;;;;;12.00;99.90;;;;;;5085573;28;20023;-68
2022/06/12 04:00:05;;;;;;;;;;;12.10;99.90;;;;;;5078293;28;20298;-67
2022/06/12 04:02:33;;;;;;;;;;;12.10;99.90;;;;;;5084877;28;20445;-67
2022/06/12 04:05:02;;;;;;;;;;;12.10;99.90;;;;;;5081637;28;19938;-66
2022/06/12 04:07:30;;;;;;;;;;;12.10;99.90;;;;;;5083356;28;19931;-68
2022/06/12 04:09:57;;;;;;;;;;;12.10;99.90;;;;;;5078279;28;20275;-68
2022/06/12 04:12:29;;;;;;;;;;;12.10;99.90;;;;;;5073419;28;19963;-68
2022/06/12 04:14:59;;;;;;;;;;;12.10;99.90;;;;;;5084604;28;19923;-68
2022/06/12 04:17:26;;;;;;;;;;;12.10;99.90;;;;;;5081917;28;20023;-68
2022/06/12 04:20:04;;;;;;;;;;;12.20;99.90;;;;;;5079515;28;19982;-68
2022/06/12 04:22:47;;;;;;;;;;;12.20;99.90;;;;;;5085600;28;19924;-68
2022/06/12 04:25:28;;;;;;;;;;;12.30;99.90;;;;;;5086235;28;19923;-68
2022/06/12 04:27:54;;;;;;;;;;;12.30;99.90;;;;;;5073551;28;20001;-68
2022/06/12 04:30:23;;;;;;;;;;;12.40;99.90;;;;;;5079112;28;19999;-68
2022/06/12 04:32:50;;;;;;;;;;;12.40;99.90;;;;;;5081580;28;19977;-67
2022/06/12 04:35:17;;;;;;;;;;;12.40;99.90;;;;;;5089525;28;19923;-67
2022/06/12 04:37:45;;;;;;;;;;;12.40;99.90;;;;;;5085098;28;19999;-67
2022/06/12 04:40:19;;;;;;;;;;;12.40;99.90;;;;;;5081342;28;20015;-69
2022/06/12 04:42:46;;;;;;;;;;;12.50;99.90;;;;;;5068265;28;19964;-67
2022/06/12 04:45:13;;;;;;;;;;;12.50;99.90;;;;;;5070772;28;19971;-67
2022/06/12 04:47:39;;;;;;;;;;;12.60;99.90;;;;;;5073782;28;20114;-68
2022/06/12 04:50:07;;;;;;;;;;;12.60;99.90;;;;;;5078915;28;20714;-67
2022/06/12 04:52:34;;;;;;;;;;;12.60;99.90;;;;;;5073578;28;20288;-68
2022/06/12 04:55:02;;;;;;;;;;;12.70;99.90;;;;;;5076611;28;20356;-68
2022/06/12 04:57:29;;;;;;;;;;;12.70;99.90;;;;;;5080466;28;19924;-68
2022/06/12 04:59:56;;;;;;;;;;;12.70;99.90;;;;;;5079560;28;20290;-67
2022/06/12 05:02:24;;;;;;;;;;;12.80;99.90;;;;;;5076334;28;19930;-69
2022/06/12 05:04:50;;;;;;;;;;;12.90;99.90;;;;;;5080201;28;19931;-70
2022/06/12 05:07:17;;;;;;;;;;;12.90;99.90;;;;;;5075635;28;20027;-70
2022/06/12 05:09:45;;;;;;;;;;;13.10;99.90;;;;;;5075389;28;19960;-70
2022/06/12 05:12:13;;;;;;;;;;;13.20;99.90;;;;;;5075714;28;20414;-68
2022/06/12 05:14:41;;;;;;;;;;;13.30;99.90;;;;;;5102457;28;20519;-68
2022/06/12 05:17:10;;;;;;;;;;;13.30;99.90;;;;;;5082943;28;20368;-69
2022/06/12 05:19:38;;;;;;;;;;;13.40;99.90;;;;;;5085347;28;20011;-69
2022/06/12 05:22:05;;;;;;;;;;;13.50;99.90;;;;;;5075793;28;20443;-69
2022/06/12 05:24:33;;;;;;;;;;;13.70;99.90;;;;;;5080191;28;19932;-70
2022/06/12 05:26:59;;;;;;;;;;;13.80;99.90;;;;;;5075427;28;19967;-69
2022/06/12 05:29:29;;;;;;;;;;;14.10;99.90;;;;;;5094356;28;20290;-69
2022/06/12 05:31:56;;;;;;;;;;;14.30;99.90;;;;;;5076950;28;20012;-68
2022/06/12 05:34:24;;;;;;;;;;;14.40;99.90;;;;;;5081229;28;19924;-68
2022/06/12 05:36:50;;;;;;;;;;;14.60;99.90;;;;;;5080770;28;19924;-68
2022/06/12 05:39:17;;;;;;;;;;;14.80;99.90;;;;;;5086151;28;19947;-69
2022/06/12 05:41:44;;;;;;;;;;;14.90;99.90;;;;;;5076457;28;19924;-69
2022/06/12 05:44:11;;;;;;;;;;;14.90;99.90;;;;;;5080138;28;19943;-67
2022/06/12 05:46:39;;;;;;;;;;;15.10;99.90;;;;;;5077949;28;19982;-67
2022/06/12 05:49:06;;;;;;;;;;;15.30;99.90;;;;;;5077554;28;19964;-68
2022/06/12 05:51:33;;;;;;;;;;;15.40;99.90;;;;;;5074400;28;20039;-69
2022/06/12 05:54:00;;;;;;;;;;;15.40;99.90;;;;;;5081033;28;19971;-68
2022/06/12 05:56:28;;;;;;;;;;;15.20;99.90;;;;;;5081367;28;19931;-68
2022/06/12 05:58:55;;;;;;;;;;;15.20;99.90;;;;;;5078508;28;20298;-68
2022/06/12 06:01:23;;;;;;;;;;;16.10;99.90;;;;;;5077903;28;20429;-67
2022/06/12 06:03:51;;;;;;;;;;;16.50;99.90;;;;;;5077509;28;19928;-67
2022/06/12 06:06:19;;;;;;;;;;;18.20;99.90;;;;;;5075312;28;19997;-68
2022/06/12 06:08:46;;;;;;;;;;;19.80;99.90;;;;;;5087463;28;19924;-67
2022/06/12 06:11:13;;;;;;;;;;;20.70;97.30;;;;;;5073216;28;19938;-67
2022/06/12 06:13:40;;;;;;;;;;;21.20;94.70;;;;;;5080585;28;19955;-66
2022/06/12 06:16:08;;;;;;;;;;;21.40;93.00;;;;;;5079373;28;19971;-67
2022/06/12 06:18:35;;;;;;;;;;;22.20;91.40;;;;;;5081336;28;19925;-67
2022/06/12 06:21:03;;;;;;;;;;;22.60;88.10;;;;;;5076142;28;19932;-68
2022/06/12 06:23:30;;;;;;;;;;;23.80;82.30;;;;;;5076892;28;19971;-67
2022/06/12 06:25:57;;;;;;;;;;;24.00;76.50;;;;;;5081298;28;20151;-68
2022/06/12 06:28:23;;;;;;;;;;;24.20;74.90;;;;;;5074769;28;20015;-68
2022/06/12 06:30:50;;;;;;;;;;;24.00;72.30;;;;;;5094758;28;20454;-67
2022/06/12 06:33:17;;;;;;;;;;;22.20;81.50;;;;;;5090169;28;20260;-67
2022/06/12 06:35:43;;;;;;;;;;;21.00;91.10;;;;;;5073080;28;19924;-68
2022/06/12 06:38:11;;;;;;;;;;;20.70;92.40;;;;;;5089478;28;20019;-67
2022/06/12 06:40:38;;;;;;;;;;;21.80;92.30;;;;;;5090474;28;19928;-66
2022/06/12 06:43:06;;;;;;;;;;;22.10;90.40;;;;;;5085232;28;20407;-66
2022/06/12 06:48:17;;;;;;;;;;;22.00;90.00;;;;;;5074170;28;20390;-66
2022/06/12 06:50:44;;;;;;;;;;;22.20;90.30;;;;;;5077024;28;20019;-67
2022/06/12 06:53:13;;;;;;;;;;;22.20;90.80;;;;;;5081514;28;20011;-66
2022/06/12 06:55:40;;;;;;;;;;;22.50;90.20;;;;;;5080223;28;20413;-66
2022/06/12 06:58:09;;;;;;;;;;;23.00;89.80;;;;;;5083388;28;20011;-67
2022/06/12 07:00:36;;;;;;;;;;;24.10;86.70;;;;;;5074554;28;19994;-67
2022/06/12 07:03:03;;;;;;;;;;;24.40;83.80;;;;;;5077577;28;19932;-66
2022/06/12 07:05:30;;;;;;;;;;;24.00;84.20;;;;;;5074980;28;20394;-66
2022/06/12 07:07:57;;;;;;;;;;;24.10;82.30;;;;;;5079863;28;19924;-67
2022/06/12 07:10:26;;;;;;;;;;;22.90;84.50;;;;;;5075831;28;19924;-67
2022/06/12 07:12:53;;;;;;;;;;;23.10;93.80;;;;;;5086998;28;20371;-67
2022/06/12 07:15:20;;;;;;;;;;;24.10;92.30;;;;;;5076332;28;20391;-68
2022/06/12 07:17:47;;;;;;;;;;;25.00;91.30;;;;;;5085958;28;20624;-67
2022/06/12 07:20:15;;;;;;;;;;;25.80;85.90;;;;;;5077163;28;19971;-67
2022/06/12 07:22:42;;;;;;;;;;;26.10;83.90;;;;;;5079046;28;19967;-68
2022/06/12 07:25:09;;;;;;;;;;;25.70;84.60;;;;;;5077555;28;20317;-68
2022/06/12 07:27:38;;;;;;;;;;;26.50;51.20;;;;;;5075797;28;20071;-67
2022/06/12 07:30:05;;;;;;;;;;;26.60;49.00;;;;;;5076928;28;19925;-68
2022/06/12 07:32:32;;;;;;;;;;;27.50;45.70;;;;;;5075053;28;19985;-68
2022/06/12 07:34:59;;;;;;;;;;;27.50;42.10;;;;;;5086277;28;19972;-68
2022/06/12 07:37:26;;;;;;;;;;;27.90;41.50;;;;;;5085881;28;20183;-67
2022/06/12 07:39:52;;;;;;;;;;;27.30;41.50;;;;;;5097102;28;19974;-66
2022/06/12 07:42:19;;;;;;;;;;;28.20;40.60;;;;;;5088639;28;20437;-67
2022/06/12 07:44:48;;;;;;;;;;;28.90;38.30;;;;;;5086486;28;19971;-68
2022/06/12 07:47:15;;;;;;;;;;;28.70;35.50;;;;;;5086433;28;19931;-67
2022/06/12 07:49:42;;;;;;;;;;;28.00;34.50;;;;;;5079443;28;20019;-67
2022/06/12 07:52:10;;;;;;;;;;;28.20;34.60;;;;;;5075978;28;20019;-67
2022/06/12 07:54:37;;;;;;;;;;;27.80;35.70;;;;;;5076371;28;20338;-67
2022/06/12 07:57:04;;;;;;;;;;;26.90;37.00;;;;;;5071954;28;19943;-67
2022/06/12 07:59:31;;;;;;;;;;;27.60;36.60;;;;;;5087320;28;19933;-67
2022/06/12 08:01:59;;;;;;;;;;;28.30;33.70;;;;;;5073562;28;19925;-66
2022/06/12 08:04:26;;;;;;;;;;;28.00;34.10;;;;;;5082216;28;19978;-67
2022/06/12 08:06:53;;;;;;;;;;;29.10;31.10;;;;;;5072778;28;19928;-67
2022/06/12 08:09:20;;;;;;;;;;;29.50;29.20;;;;;;5080735;28;19964;-66
2022/06/12 08:11:48;;;;;;;;;;;29.30;28.30;;;;;;5076899;28;19924;-67
2022/06/12 08:14:15;;;;;;;;;;;29.30;28.50;;;;;;5081357;28;19972;-67
2022/06/12 08:16:42;;;;;;;;;;;29.10;28.10;;;;;;5075380;28;20365;-67
2022/06/12 08:21:51;;;;;;;;;;;29.40;26.40;;;;;;5080659;28;19947;-67
2022/06/12 08:24:18;;;;;;;;;;;29.80;26.00;;;;;;5074133;28;19998;-68
2022/06/12 08:26:45;;;;;;;;;;;29.70;25.70;;;;;;5074600;28;19932;-68
2022/06/12 08:29:12;;;;;;;;;;;29.50;24.50;;;;;;5071992;28;19956;-67
2022/06/12 08:31:41;;;;;;;;;;;28.80;26.20;;;;;;5073326;28;20021;-68
2022/06/12 08:34:15;;;;;;;;;;;29.30;25.10;;;;;;5078892;28;19979;-68
2022/06/12 08:36:44;;;;;;;;;;;29.40;24.80;;;;;;5073508;28;19932;-68
2022/06/12 08:39:10;;;;;;;;;;;29.00;24.90;;;;;;5077810;28;20083;-67
2022/06/12 08:41:40;;;;;;;;;;;29.20;24.90;;;;;;5075044;28;20011;-68
2022/06/12 08:44:11;;;;;;;;;;;30.00;24.10;;;;;;5074411;28;20008;-68
2022/06/12 08:46:41;;;;;;;;;;;30.20;22.10;;;;;;5094035;28;19934;-67
2022/06/12 08:49:12;;;;;;;;;;;29.20;22.80;;;;;;5084979;28;19943;-68
2022/06/12 08:51:41;;;;;;;;;;;28.30;24.10;;;;;;5080405;28;20356;-67
2022/06/12 08:54:11;;;;;;;;;;;27.70;23.30;;;;;;5088984;28;19927;-67
2022/06/12 08:56:42;;;;;;;;;;;27.10;24.20;;;;;;5075133;28;19925;-67
2022/06/12 08:59:11;;;;;;;;;;;27.50;23.60;;;;;;5073926;28;19924;-67
2022/06/12 09:01:41;;;;;;;;;;;28.30;24.30;;;;;;5073525;28;21879;-67
2022/06/12 09:04:10;;;;;;;;;;;27.90;23.40;;;;;;5079768;28;19928;-67
2022/06/12 09:06:41;;;;;;;;;;;28.90;23.00;;;;;;5069649;28;20726;-68
2022/06/12 09:09:15;;;;;;;;;;;29.90;20.90;;;;;;5077680;28;20011;-67
2022/06/12 09:11:44;;;;;;;;;;;29.70;19.30;;;;;;5080872;28;19931;-67
2022/06/12 09:14:14;;;;;;;;;;;29.30;20.40;;;;;;5078490;28;20372;-67
2022/06/12 09:16:44;;;;;;;;;;;29.60;20.10;;;;;;5083656;28;19935;-66
2022/06/12 09:19:13;;;;;;;;;;;30.20;19.10;;;;;;5072720;28;20359;-66
2022/06/12 09:21:47;;;;;;;;;;;30.10;18.90;;;;;;5074335;28;19924;-67
2022/06/12 09:24:21;;;;;;;;;;;29.90;18.80;;;;;;5070451;28;19964;-66
2022/06/12 09:26:51;;;;;;;;;;;30.40;17.90;;;;;;5077333;28;20386;-67
2022/06/12 09:29:21;;;;;;;;;;;30.80;15.30;;;;;;5076717;28;19924;-67
2022/06/12 09:31:52;;;;;;;;;;;30.60;15.50;;;;;;5074229;28;19931;-67
2022/06/12 09:34:25;;;;;;;;;;;31.10;14.90;;;;;;5075949;28;20340;-68
2022/06/12 09:36:59;;;;;;;;;;;29.90;15.40;;;;;;5095742;28;19923;-68
2022/06/12 09:39:36;;;;;;;;;;;29.30;15.90;;;;;;5085738;28;19968;-68
2022/06/12 09:42:08;;;;;;;;;;;28.30;17.10;;;;;;5079876;28;20359;-67
2022/06/12 09:44:41;;;;;;;;;;;27.40;19.60;;;;;;5069028;28;20033;-67
2022/06/12 09:47:09;;;;;;;;;;;28.30;17.80;;;;;;5078610;28;19955;-68
2022/06/12 09:49:39;;;;;;;;;;;29.20;17.00;;;;;;5085753;28;20457;-68
2022/06/12 09:52:22;;;;;;;;;;;29.00;17.30;;;;;;5073842;28;19948;-67
2022/06/12 09:54:53;;;;;;;;;;;29.20;16.90;;;;;;5087658;28;19962;-68
2022/06/12 09:57:22;;;;;;;;;;;28.50;18.10;;;;;;5087938;28;20019;-67
2022/06/12 09:59:53;;;;;;;;;;;29.00;17.50;;;;;;5073076;28;20478;-68
2022/06/12 10:02:22;;;;;;;;;;;29.20;18.20;;;;;;5074388;28;19958;-67
2022/06/12 10:04:52;;;;;;;;;;;28.20;18.80;;;;;;5070726;28;20032;-68
2022/06/12 10:07:22;;;;;;;;;;;28.10;19.10;;;;;;5071708;28;20331;-67
2022/06/12 10:09:51;;;;;;;;;;;27.50;19.90;;;;;;5092086;28;20035;-67
2022/06/12 10:12:21;;;;;;;;;;;27.80;19.20;;;;;;5093367;28;19963;-70
2022/06/12 10:14:50;;;;;;;;;;;27.00;20.30;;;;;;5093329;28;19932;-67
2022/06/12 10:17:21;;;;;;;;;;;26.00;21.80;;;;;;5089461;28;20383;-67
2022/06/12 10:19:50;;;;;;;;;;;25.50;23.30;;;;;;5088567;28;20042;-68
2022/06/12 10:22:19;;;;;;;;;;;25.20;22.60;;;;;;5087387;28;20023;-67
2022/06/12 10:24:46;;;;;;;;;;;25.30;22.90;;;;;;5084587;28;20525;-68
2022/06/12 10:27:14;;;;;;;;;;;25.40;23.00;;;;;;5075038;28;19968;-68
2022/06/12 10:29:45;;;;;;;;;;;25.20;22.80;;;;;;5096246;28;20039;-69
2022/06/12 10:32:14;;;;;;;;;;;24.60;24.10;;;;;;5073887;28;19924;-66
2022/06/12 10:34:41;;;;;;;;;;;24.50;25.70;;;;;;5074047;28;20040;-68
2022/06/12 10:37:12;;;;;;;;;;;25.00;25.10;;;;;;5080350;28;19967;-67
2022/06/12 10:39:40;;;;;;;;;;;24.60;25.00;;;;;;5085654;28;20003;-67
2022/06/12 10:42:08;;;;;;;;;;;24.60;24.20;;;;;;5073614;28;19932;-68
2022/06/12 10:44:37;;;;;;;;;;;24.50;24.40;;;;;;5085061;28;20014;-67
2022/06/12 10:47:14;;;;;;;;;;;24.50;23.60;;;;;;5100778;28;19924;-68
2022/06/12 10:49:41;;;;;;;;;;;24.50;23.90;;;;;;5086251;28;19925;-67
2022/06/12 10:52:13;;;;;;;;;;;24.80;24.70;;;;;;5073100;28;20028;-67
2022/06/12 10:54:40;;;;;;;;;;;24.80;25.30;;;;;;5085930;28;20015;-67
2022/06/12 10:57:10;;;;;;;;;;;24.80;24.90;;;;;;5073715;28;19924;-68
2022/06/12 10:59:38;;;;;;;;;;;24.40;24.20;;;;;;5091469;28;19924;-68
2022/06/12 11:02:23;;;;;;;;;;;24.40;24.60;;;;;;5075364;28;20446;-68
2022/06/12 11:04:58;;;;;;;;;;;24.60;24.20;;;;;;5083431;28;19959;-68
2022/06/12 11:07:27;;;;;;;;;;;24.30;22.90;;;;;;5076723;28;19979;-68
2022/06/12 11:10:01;;;;;;;;;;;23.80;23.40;;;;;;5087436;28;19932;-67
2022/06/12 11:12:34;;;;;;;;;;;23.60;23.70;;;;;;5085230;28;20011;-67
2022/06/12 11:15:14;;;;;;;;;;;23.80;24.60;;;;;;5093106;28;19924;-68
2022/06/12 11:17:56;;;;;;;;;;;24.30;23.50;;;;;;5087081;28;19924;-67
2022/06/12 11:20:28;;;;;;;;;;;24.00;22.70;;;;;;5090779;28;19977;-67
2022/06/12 11:23:04;;;;;;;;;;;23.70;23.80;;;;;;5073197;28;19974;-67
2022/06/12 11:25:37;;;;;;;;;;;23.80;23.40;;;;;;5089625;28;19967;-67
2022/06/12 11:28:10;;;;;;;;;;;23.70;24.10;;;;;;5086688;28;19963;-67
2022/06/12 11:30:46;;;;;;;;;;;23.70;23.60;;;;;;5081030;28;20027;-67
2022/06/12 11:33:31;;;;;;;;;;;23.60;24.20;;;;;;5089247;28;19924;-66
2022/06/12 11:36:05;;;;;;;;;;;23.70;25.40;;;;;;5075119;28;19999;-67
2022/06/12 11:38:41;;;;;;;;;;;23.90;25.20;;;;;;5084808;28;19924;-67
2022/06/12 11:41:13;;;;;;;;;;;23.80;24.10;;;;;;5092057;28;19964;-68
2022/06/12 11:43:41;;;;;;;;;;;23.60;24.70;;;;;;5085071;28;19947;-66
2022/06/12 11:46:24;;;;;;;;;;;23.60;25.70;;;;;;5073914;28;20015;-67
2022/06/12 11:48:56;;;;;;;;;;;23.90;25.10;;;;;;5085001;28;19966;-68
2022/06/12 11:51:31;;;;;;;;;;;23.90;24.30;;;;;;5071969;28;19968;-68
2022/06/12 11:54:13;;;;;;;;;;;24.00;23.20;;;;;;5083909;28;19972;-68
2022/06/12 11:56:44;;;;;;;;;;;24.00;23.80;;;;;;5078707;28;20275;-68
2022/06/12 11:59:15;;;;;;;;;;;23.90;22.90;;;;;;5073388;28;19994;-68
2022/06/12 12:01:47;;;;;;;;;;;23.80;22.90;;;;;;5075847;28;19929;-68
2022/06/12 12:04:29;;;;;;;;;;;23.90;24.10;;;;;;5089689;28;19967;-68
2022/06/12 12:07:07;;;;;;;;;;;24.00;24.40;;;;;;5087011;28;19946;-68
2022/06/12 12:09:44;;;;;;;;;;;23.90;25.10;;;;;;5077747;28;19934;-67
2022/06/12 12:12:13;;;;;;;;;;;23.80;26.60;;;;;;5085835;28;20580;-66
2022/06/12 12:14:41;;;;;;;;;;;24.20;21.90;;;;;;5083590;28;19924;-67
2022/06/12 12:17:10;;;;;;;;;;;24.10;22.70;;;;;;5088205;28;20010;-67
2022/06/12 12:19:39;;;;;;;;;;;23.80;24.20;;;;;;5080417;28;19924;-67
2022/06/12 12:22:09;;;;;;;;;;;23.40;25.10;;;;;;5072548;28;20018;-67
2022/06/12 12:24:39;;;;;;;;;;;23.10;25.20;;;;;;5081281;28;19976;-67
2022/06/12 12:27:10;;;;;;;;;;;23.20;25.10;;;;;;5082974;28;20011;-67
2022/06/12 12:29:38;;;;;;;;;;;23.30;25.20;;;;;;5071637;28;20302;-67
2022/06/12 12:32:08;;;;;;;;;;;23.60;22.30;;;;;;5071781;28;19970;-67
2022/06/12 12:34:35;;;;;;;;;;;23.60;21.40;;;;;;5082233;28;19928;-67
2022/06/12 12:43:01;;;;;;;;;;;23.70;21.30;;;;;;5077310;28;19967;-67
2022/06/12 12:45:29;;;;;;;;;;;23.60;20.70;;;;;;5089829;28;20334;-68
2022/06/12 12:48:00;;;;;;;;;;;23.30;21.30;;;;;;5091648;28;20045;-67
2022/06/12 12:50:27;;;;;;;;;;;23.40;20.90;;;;;;5074853;28;19967;-67
2022/06/12 12:52:56;;;;;;;;;;;23.80;20.00;;;;;;5080218;28;19924;-67
2022/06/12 12:55:27;;;;;;;;;;;24.20;20.20;;;;;;5084987;28;20045;-67
2022/06/12 12:57:55;;;;;;;;;;;24.40;20.80;;;;;;5085677;28;19947;-67
2022/06/12 13:00:33;;;;;;;;;;;24.60;20.30;;;;;;5079061;28;20338;-67
2022/06/12 13:03:05;;;;;;;;;;;24.70;19.10;;;;;;5091812;28;19924;-67
2022/06/12 13:05:37;;;;;;;;;;;24.30;18.20;;;;;;5089099;28;20015;-67
2022/06/12 13:08:13;;;;;;;;;;;24.10;18.50;;;;;;5081845;28;19978;-68
2022/06/12 13:11:13;;;;;;;;;;;24.20;18.40;;;;;;5093796;28;19969;-67
2022/06/12 13:13:49;;;;;;;;;;;24.10;18.40;;;;;;5024262;28;20024;-68
2022/06/12 13:16:22;;;;;;;;;;;24.60;18.10;;;;;;5012748;28;20000;-68
2022/06/12 13:18:59;;;;;;;;;;;24.60;17.30;;;;;;5052629;28;20007;-67
2022/06/12 13:21:31;;;;;;;;;;;24.50;17.30;;;;;;5080634;28;19932;-67
2022/06/12 13:24:15;;;;;;;;;;;24.60;18.30;;;;;;5080985;28;19924;-68
2022/06/12 13:26:43;;;;;;;;;;;24.50;16.80;;;;;;5082009;28;20007;-68
2022/06/12 13:29:14;;;;;;;;;;;24.70;18.30;;;;;;5077346;28;19934;-67
2022/06/12 13:31:41;;;;;;;;;;;24.50;18.70;;;;;;5081406;28;20011;-67
2022/06/12 13:34:08;;;;;;;;;;;24.40;18.70;;;;;;5079032;28;19975;-67
2022/06/12 13:36:36;;;;;;;;;;;24.00;18.80;;;;;;5080525;28;19960;-67
2022/06/12 13:39:05;;;;;;;;;;;24.30;19.60;;;;;;5086033;28;20046;-67
2022/06/12 13:41:36;;;;;;;;;;;24.50;17.40;;;;;;5082295;28;19932;-67
2022/06/12 13:44:17;;;;;;;;;;;24.60;18.20;;;;;;5089660;28;20264;-67
2022/06/12 13:46:45;;;;;;;;;;;24.90;18.90;;;;;;5085132;28;20046;-67
2022/06/12 13:49:18;;;;;;;;;;;24.90;18.40;;;;;;5085904;28;20023;-68
2022/06/12 13:51:49;;;;;;;;;;;25.00;17.70;;;;;;5081538;28;20370;-67
2022/06/12 13:54:17;;;;;;;;;;;24.40;17.80;;;;;;5089968;28;19924;-67
2022/06/12 13:56:46;;;;;;;;;;;24.00;17.60;;;;;;5078792;28;19959;-68
2022/06/12 13:59:15;;;;;;;;;;;24.10;18.10;;;;;;5071398;28;20321;-67
2022/06/12 14:01:42;;;;;;;;;;;24.40;17.90;;;;;;5090223;28;20007;-67
2022/06/12 14:04:20;;;;;;;;;;;24.60;18.00;;;;;;5075601;28;20030;-68
2022/06/12 14:06:47;;;;;;;;;;;24.90;17.30;;;;;;5089953;28;20475;-67
2022/06/12 14:09:16;;;;;;;;;;;24.70;16.80;;;;;;5082550;28;19956;-67
2022/06/12 14:11:43;;;;;;;;;;;24.70;16.20;;;;;;5079687;28;19967;-68
2022/06/12 14:14:29;;;;;;;;;;;25.00;16.80;;;;;;5088186;28;19924;-67
2022/06/12 14:16:56;;;;;;;;;;;25.00;16.40;;;;;;5083475;28;20475;-67
2022/06/12 14:19:27;;;;;;;;;;;24.70;17.10;;;;;;5089164;28;20660;-67
2022/06/12 14:21:59;;;;;;;;;;;25.00;15.40;;;;;;5075480;28;19925;-68
2022/06/12 14:24:28;;;;;;;;;;;25.10;16.50;;;;;;5077292;28;19931;-69
2022/06/12 14:26:55;;;;;;;;;;;25.10;16.60;;;;;;5081575;28;19924;-68
2022/06/12 14:29:42;;;;;;;;;;;25.20;16.60;;;;;;5082058;28;19996;-67
2022/06/12 14:32:20;;;;;;;;;;;25.00;16.80;;;;;;5077724;28;19931;-68
2022/06/12 14:34:59;;;;;;;;;;;25.10;15.00;;;;;;5084861;28;19924;-69
2022/06/12 14:37:27;;;;;;;;;;;25.10;16.50;;;;;;5077502;28;20019;-67
2022/06/12 14:39:53;;;;;;;;;;;25.10;16.70;;;;;;5085371;28;20372;-66
2022/06/12 14:42:22;;;;;;;;;;;24.80;16.30;;;;;;5079240;28;19924;-66
2022/06/12 14:44:50;;;;;;;;;;;24.40;17.00;;;;;;5076371;28;19924;-67
2022/06/12 14:47:18;;;;;;;;;;;24.20;16.80;;;;;;5085528;28;19979;-68
2022/06/12 14:49:45;;;;;;;;;;;24.00;22.00;;;;;;5082210;28;19930;-67
2022/06/12 14:52:13;;;;;;;;;;;23.80;24.10;;;;;;5080572;28;20478;-67